createdAt,value
2023-06-29T00:03:07.736Z,14.78
2023-06-29T00:08:10.916Z,14.86
2023-06-29T00:13:12.732Z,14.97
2023-06-29T00:18:19.680Z,15.07
2023-06-29T00:23:21.409Z,15.18
2023-06-29T00:28:23.245Z,15.28
2023-06-29T00:33:25.212Z,15.35
2023-06-29T00:38:27.392Z,15.41
2023-06-29T00:43:29.480Z,15.47
2023-06-29T00:48:31.456Z,15.52
2023-06-29T00:53:33.640Z,15.56
2023-06-29T00:58:36.335Z,15.60
2023-06-29T01:03:39.318Z,15.64
2023-06-29T01:08:46.781Z,15.67
2023-06-29T01:13:51.735Z,15.68
2023-06-29T01:18:55.951Z,15.68
2023-06-29T01:23:59.757Z,15.67
2023-06-29T01:29:01.631Z,15.68
2023-06-29T01:34:03.361Z,15.71
2023-06-29T01:39:16.746Z,15.76
2023-06-29T01:44:19.650Z,15.82
2023-06-29T01:49:21.729Z,15.88
2023-06-29T01:54:23.609Z,15.93
2023-06-29T01:59:26.097Z,15.96
2023-06-29T02:04:28.189Z,16.00
2023-06-29T02:09:30.362Z,16.03
2023-06-29T02:14:32.139Z,16.06
2023-06-29T02:19:33.954Z,16.09
2023-06-29T02:24:35.918Z,16.11
2023-06-29T02:29:38.204Z,16.13
2023-06-29T02:34:40.200Z,16.14
2023-06-29T02:39:42.145Z,16.14
2023-06-29T02:44:44.220Z,16.14
2023-06-29T02:49:46.096Z,16.14
2023-06-29T02:54:48.083Z,16.16
2023-06-29T02:59:49.852Z,16.17
2023-06-29T03:04:52.135Z,16.16
2023-06-29T03:09:53.929Z,16.18
2023-06-29T03:14:55.682Z,16.20
2023-06-29T03:19:57.673Z,16.21
2023-06-29T03:24:59.542Z,16.30
2023-06-29T03:30:01.453Z,16.52
2023-06-29T03:35:04.734Z,16.79
2023-06-29T03:40:08.045Z,17.20
2023-06-29T03:45:10.549Z,18.27
2023-06-29T03:50:12.556Z,19.40
2023-06-29T03:55:14.703Z,20.54
2023-06-29T04:00:17.293Z,21.21
2023-06-29T04:05:19.168Z,20.93
2023-06-29T04:10:21.366Z,20.68
2023-06-29T04:15:23.336Z,20.46
2023-06-29T04:20:25.421Z,20.43
2023-06-29T04:25:27.500Z,21.10
2023-06-29T04:30:29.382Z,21.98
2023-06-29T04:35:31.557Z,23.00
2023-06-29T04:40:33.436Z,24.53
2023-06-29T04:45:35.822Z,25.99
2023-06-29T04:50:38.422Z,27.29
2023-06-29T04:55:40.397Z,28.59
2023-06-29T05:00:42.271Z,29.66
2023-06-29T05:05:45.499Z,30.69
2023-06-29T05:10:47.668Z,31.56
2023-06-29T05:15:49.544Z,32.34
2023-06-29T05:20:51.274Z,33.11
2023-06-29T05:25:53.206Z,34.04
2023-06-29T05:30:55.073Z,34.84
2023-06-29T05:35:56.969Z,35.14
2023-06-29T05:41:01.444Z,35.00
2023-06-29T05:46:04.954Z,35.16
2023-06-29T05:51:07.595Z,36.04
2023-06-29T05:56:09.881Z,36.71
2023-06-29T06:01:12.578Z,36.75
2023-06-29T06:06:14.869Z,35.48
2023-06-29T06:11:16.746Z,34.06
2023-06-29T06:16:19.693Z,33.62
2023-06-29T06:21:21.731Z,34.72
2023-06-29T06:26:23.627Z,35.80
2023-06-29T06:31:33.635Z,36.59
2023-06-29T06:36:37.188Z,36.23
2023-06-29T06:41:39.224Z,36.63
2023-06-29T06:46:41.322Z,37.59
2023-06-29T06:51:43.740Z,38.20
2023-06-29T06:56:45.714Z,38.87
2023-06-29T07:01:48.316Z,39.57
2023-06-29T07:06:50.227Z,40.29
2023-06-29T07:11:52.274Z,40.35
2023-06-29T07:16:55.729Z,40.73
2023-06-29T07:27:02.692Z,41.52
2023-06-29T07:32:05.635Z,42.12
2023-06-29T07:37:08.207Z,42.89
2023-06-29T07:42:10.107Z,43.49
2023-06-29T07:47:12.102Z,43.42
2023-06-29T07:52:14.251Z,43.28
2023-06-29T08:02:21.693Z,43.16
2023-06-29T08:07:24.074Z,43.31
2023-06-29T08:12:26.066Z,43.43
2023-06-29T08:17:30.826Z,43.38
2023-06-29T08:22:32.788Z,43.56
2023-06-29T08:27:36.408Z,43.53
2023-06-29T08:32:38.420Z,43.23
2023-06-29T08:37:40.688Z,43.09
2023-06-29T08:42:43.165Z,42.95
2023-06-29T08:47:51.895Z,42.80
2023-06-29T08:52:55.468Z,42.86
2023-06-29T08:57:57.833Z,43.04
2023-06-29T09:03:00.638Z,42.46
2023-06-29T09:08:03.501Z,40.70
2023-06-29T09:13:06.939Z,39.88
2023-06-29T09:18:09.147Z,39.75
2023-06-29T09:23:13.654Z,39.63
2023-06-29T09:28:15.831Z,39.68
2023-06-29T09:33:19.298Z,39.59
2023-06-29T09:38:21.119Z,39.02
2023-06-29T09:43:28.480Z,36.86
2023-06-29T09:53:37.810Z,34.65
2023-06-29T09:58:40.509Z,33.85
2023-06-29T10:03:42.706Z,32.68
2023-06-29T10:08:50.914Z,32.19
2023-06-29T10:13:55.254Z,32.21
2023-06-29T10:19:04.355Z,32.50
2023-06-29T10:24:07.378Z,32.72
2023-06-29T10:29:10.225Z,32.19
2023-06-29T10:34:14.031Z,31.28
2023-06-29T10:39:41.307Z,30.78
2023-06-29T10:44:47.524Z,30.41
2023-06-29T10:49:57.141Z,30.45
2023-06-29T10:55:13.555Z,30.45
2023-06-29T11:00:16.755Z,30.47
2023-06-29T11:05:20.624Z,30.56
2023-06-29T11:10:23.284Z,30.87
2023-06-29T11:15:28.131Z,30.85
2023-06-29T11:20:30.721Z,30.88
2023-06-29T11:25:33.249Z,31.11
2023-06-29T11:30:40.336Z,31.17
2023-06-29T11:35:44.089Z,31.15
2023-06-29T11:40:46.015Z,31.25
2023-06-29T11:45:49.629Z,31.23
2023-06-29T11:50:51.824Z,31.22
2023-06-29T11:55:55.342Z,31.30
2023-06-29T12:00:57.598Z,31.22
2023-06-29T12:06:01.347Z,31.05
2023-06-29T12:11:04.306Z,30.99
2023-06-29T12:21:18.126Z,31.15
2023-06-29T12:26:21.951Z,30.99
2023-06-29T12:31:30.331Z,30.51
2023-06-29T12:36:33.896Z,30.11
2023-06-29T12:41:36.116Z,30.06
2023-06-29T12:46:38.116Z,30.07
2023-06-29T12:51:40.251Z,29.89
2023-06-29T12:56:42.945Z,29.48
2023-06-29T13:01:45.245Z,29.17
2023-06-29T13:06:47.230Z,29.16
2023-06-29T13:11:49.195Z,29.03
2023-06-29T13:16:51.404Z,29.25
2023-06-29T13:21:56.774Z,29.46
2023-06-29T13:26:59.122Z,29.76
2023-06-29T13:32:01.102Z,30.13
2023-06-29T13:37:03.697Z,30.40
2023-06-29T13:42:10.586Z,30.24
2023-06-29T13:47:18.584Z,30.07
2023-06-29T13:52:20.486Z,29.81
2023-06-29T13:57:23.648Z,29.45
2023-06-29T14:02:28.652Z,29.24
2023-06-29T14:07:30.807Z,29.16
2023-06-29T14:12:33.939Z,29.00
2023-06-29T14:17:36.808Z,28.91
2023-06-29T14:22:39.671Z,28.93
2023-06-29T14:27:42.180Z,28.76
2023-06-29T14:32:44.648Z,28.67
2023-06-29T14:37:46.904Z,28.55
2023-06-29T14:42:48.893Z,28.20
2023-06-29T14:47:50.907Z,27.69
2023-06-29T14:52:52.951Z,27.26
2023-06-29T14:57:54.823Z,27.10
2023-06-29T15:02:56.634Z,27.12
2023-06-29T15:07:58.621Z,27.45
2023-06-29T15:13:00.667Z,27.70
2023-06-29T15:18:02.705Z,27.80
2023-06-29T15:23:04.624Z,27.74
2023-06-29T15:28:09.367Z,27.67
2023-06-29T15:33:11.504Z,27.56
2023-06-29T15:38:14.246Z,27.47
2023-06-29T15:43:18.709Z,27.25
2023-06-29T15:48:21.850Z,27.01
2023-06-29T15:53:24.395Z,26.73
2023-06-29T15:58:27.850Z,26.55
2023-06-29T16:03:29.994Z,26.37
2023-06-29T16:08:32.092Z,26.17
2023-06-29T16:13:34.079Z,25.91
2023-06-29T16:18:35.917Z,25.67
2023-06-29T16:23:38.621Z,25.48
2023-06-29T16:28:40.712Z,25.25
2023-06-29T16:33:43.605Z,25.12
2023-06-29T16:38:46.101Z,25.00
2023-06-29T16:43:53.127Z,24.87
2023-06-29T16:48:57.841Z,24.76
2023-06-29T16:53:59.817Z,24.63
2023-06-29T16:59:02.003Z,24.51
2023-06-29T17:04:04.285Z,24.38
2023-06-29T17:09:06.273Z,24.23
2023-06-29T17:14:08.253Z,23.98
2023-06-29T17:19:11.294Z,23.76
2023-06-29T17:24:13.332Z,23.51
2023-06-29T17:29:15.821Z,23.22
2023-06-29T17:34:18.410Z,23.05
2023-06-29T17:39:22.335Z,22.90
2023-06-29T17:44:24.484Z,22.79
2023-06-29T17:49:27.318Z,22.59
2023-06-29T17:54:29.617Z,22.41
2023-06-29T17:59:31.997Z,22.24
2023-06-29T18:04:34.139Z,22.06
2023-06-29T18:09:36.569Z,21.89
2023-06-29T18:14:38.857Z,21.72
2023-06-29T18:19:40.732Z,21.56
2023-06-29T18:24:42.718Z,21.38
2023-06-29T18:29:45.221Z,21.20
2023-06-29T18:34:48.107Z,21.00
2023-06-29T18:39:49.880Z,20.82
2023-06-29T18:44:53.086Z,20.62
2023-06-29T18:49:56.399Z,20.41
2023-06-29T18:55:01.673Z,20.20
2023-06-29T19:00:04.396Z,20.01
2023-06-29T19:05:08.432Z,19.80
2023-06-29T19:10:12.004Z,19.60
2023-06-29T19:15:14.912Z,19.41
2023-06-29T19:20:18.212Z,19.20
2023-06-29T19:25:20.193Z,19.04
2023-06-29T19:30:22.182Z,18.89
2023-06-29T19:35:24.979Z,18.73
2023-06-29T19:40:28.411Z,18.55
2023-06-29T19:45:31.354Z,18.39
2023-06-29T19:50:33.889Z,18.23
2023-06-29T19:55:36.275Z,18.05
2023-06-29T20:00:38.139Z,17.88
2023-06-29T20:05:41.435Z,17.69
2023-06-29T20:10:43.546Z,17.49
2023-06-29T20:15:46.554Z,17.31
2023-06-29T20:20:48.628Z,17.16
2023-06-29T20:25:51.940Z,16.99
2023-06-29T20:30:55.153Z,16.82
2023-06-29T20:35:58.058Z,16.65
2023-06-29T20:41:00.737Z,16.49
2023-06-29T20:46:03.197Z,16.34
2023-06-29T20:51:16.881Z,16.20
2023-06-29T20:56:21.117Z,16.08
2023-06-29T21:01:24.418Z,16.00
2023-06-29T21:06:26.920Z,15.92
2023-06-29T21:11:31.338Z,15.82
2023-06-29T21:16:34.886Z,15.71
2023-06-29T21:21:37.359Z,15.59
2023-06-29T21:26:39.359Z,15.51
2023-06-29T21:31:42.656Z,15.47
2023-06-29T21:36:45.042Z,15.42
2023-06-29T21:41:47.324Z,15.38
2023-06-29T21:46:49.618Z,15.34
2023-06-29T21:51:51.846Z,15.25
2023-06-29T21:56:54.552Z,15.14
2023-06-29T22:01:57.316Z,15.03
2023-06-29T22:07:11.676Z,14.92
2023-06-29T22:12:17.738Z,14.84
2023-06-29T22:17:20.438Z,14.77
2023-06-29T22:22:22.208Z,14.70
2023-06-29T22:27:23.882Z,14.63
2023-06-29T22:32:25.984Z,14.54
2023-06-29T22:37:28.148Z,14.45
2023-06-29T22:42:30.332Z,14.36
2023-06-29T22:47:32.461Z,14.29
2023-06-29T22:52:34.499Z,14.21
2023-06-29T22:57:36.479Z,14.15
2023-06-29T23:02:38.818Z,14.08
2023-06-29T23:07:44.119Z,14.01
2023-06-29T23:12:48.562Z,13.98
2023-06-29T23:17:50.376Z,13.96
2023-06-29T23:22:52.895Z,13.92
2023-06-29T23:27:54.901Z,13.86
2023-06-29T23:32:56.683Z,13.81
2023-06-29T23:37:58.863Z,13.77
2023-06-29T23:43:05.705Z,13.72
2023-06-29T23:48:07.794Z,13.66
2023-06-29T23:53:09.616Z,13.61
2023-06-29T23:58:11.394Z,13.55
